Time;durP1;ratioP1;P1;durP2;ratioP2;P2;SDS_P1;SDS_P2;PMS_P1;PMS_P2;Temp;Humidity;BMP_temperature;BMP_pressure;BME280_temperature;BME280_humidity;BME280_pressure;Samples;Min_cycle;Max_cycle;Signal;HPM_P1;HPM_P2
2022/03/30 00:00:14;;;;;;;61.13;20.13;;;;;;;-149.78;100.00;50369.75;5077782;28;20036;-70
2022/03/30 00:02:39;;;;;;;57.53;20.95;;;;;;;-149.78;100.00;50393.22;5095711;28;20693;-70
2022/03/30 00:05:06;;;;;;;52.65;18.70;;;;;;;-149.78;100.00;50350.19;5094380;28;20089;-69
2022/03/30 00:07:32;;;;;;;58.00;20.75;;;;;;;-149.78;100.00;50377.56;5095714;28;20032;-70
2022/03/30 00:10:00;;;;;;;57.28;21.98;;;;;;;-149.78;100.00;50373.66;5095364;28;20467;-70
2022/03/30 00:12:26;;;;;;;58.35;20.27;;;;;;;-149.78;100.00;50395.16;5094249;28;20042;-69
2022/03/30 00:14:52;;;;;;;60.47;21.35;;;;;;;-149.78;100.00;50365.84;5095519;28;20032;-69
2022/03/30 00:17:18;;;;;;;60.65;19.60;;;;;;;-149.78;100.00;50420.59;5077476;28;20452;-70
2022/03/30 00:19:44;;;;;;;56.60;20.88;;;;;;;-149.78;100.00;50358.00;5088729;28;20036;-70
2022/03/30 00:22:10;;;;;;;58.30;20.75;;;;;;;-149.78;100.00;50365.84;5073848;28;20032;-69
2022/03/30 00:24:38;;;;;;;60.45;20.42;;;;;;;-149.78;100.00;50397.13;5073943;28;20039;-69
2022/03/30 00:27:06;;;;;;;62.08;21.45;;;;;;;-149.78;100.00;50352.16;5074851;28;20611;-70
2022/03/30 00:29:33;;;;;;;63.92;22.70;;;;;;;-149.78;100.00;50365.84;5074631;28;20446;-70
2022/03/30 00:31:58;;;;;;;61.60;22.40;;;;;;;-149.78;100.00;50365.84;5073540;28;20032;-70
2022/03/30 00:34:24;;;;;;;57.85;22.33;;;;;;;-149.78;100.00;50436.25;5074867;28;20058;-70
2022/03/30 00:36:50;;;;;;;57.60;20.60;;;;;;;-149.78;100.00;50393.22;5074104;28;20040;-69
2022/03/30 00:39:17;;;;;;;49.88;20.58;;;;;;;-149.78;100.00;50365.84;5073565;28;20033;-70
2022/03/30 00:41:44;;;;;;;57.97;21.17;;;;;;;-149.78;100.00;50397.13;5074728;28;20036;-70
2022/03/30 00:44:12;;;;;;;59.38;21.88;;;;;;;-149.78;100.00;50383.44;5073436;28;20468;-70
2022/03/30 00:46:42;;;;;;;57.85;20.35;;;;;;;-149.78;100.00;50406.91;5074783;28;20040;-70
2022/03/30 00:49:07;;;;;;;60.78;21.42;;;;;;;-149.78;100.00;50381.47;5083492;28;20047;-70
2022/03/30 00:51:33;;;;;;;60.88;21.20;;;;;;;-149.78;100.00;50403.00;5093524;28;20044;-69
2022/03/30 00:53:59;;;;;;;69.75;22.38;;;;;;;-149.78;100.00;50371.69;5093385;28;20135;-69
2022/03/30 00:56:27;;;;;;;53.35;19.75;;;;;;;-149.78;100.00;50393.22;5094590;28;20376;-70
2022/03/30 00:58:52;;;;;;;52.65;20.85;;;;;;;-149.78;100.00;50381.47;5093179;28;20032;-70
2022/03/30 01:01:20;;;;;;;54.00;20.33;;;;;;;-149.78;100.00;50375.63;5093150;28;20119;-70
2022/03/30 01:03:48;;;;;;;63.30;22.23;;;;;;;-149.78;100.00;50401.03;5094454;28;20088;-70
2022/03/30 01:06:14;;;;;;;55.97;20.63;;;;;;;-149.78;100.00;50373.66;5094362;28;20028;-70
2022/03/30 01:08:40;;;;;;;60.28;22.02;;;;;;;-149.78;100.00;50381.47;5093017;28;20028;-70
2022/03/30 01:11:09;;;;;;;58.40;21.88;;;;;;;-149.78;100.00;50426.47;5076143;28;20392;-70
2022/03/30 01:13:35;;;;;;;60.10;21.17;;;;;;;-149.78;100.00;50369.75;5093012;28;20047;-69
2022/03/30 01:16:02;;;;;;;63.40;21.33;;;;;;;-149.78;100.00;50404.94;5076164;28;20051;-70
2022/03/30 01:18:28;;;;;;;67.38;22.02;;;;;;;-149.78;100.00;50397.13;5075960;28;20043;-69
2022/03/30 01:20:54;;;;;;;60.03;21.63;;;;;;;-149.78;100.00;50387.34;5077590;28;20040;-69
2022/03/30 01:23:19;;;;;;;62.08;22.20;;;;;;;-149.78;100.00;50381.47;5072731;28;20029;-70
2022/03/30 01:25:45;;;;;;;63.85;22.33;;;;;;;-149.78;100.00;50381.47;5055703;28;20070;-69
2022/03/30 01:28:11;;;;;;;60.35;21.20;;;;;;;-149.78;100.00;50404.94;5072815;28;20115;-70
2022/03/30 01:33:21;;;;;;;54.42;20.25;;;;;;;-149.78;100.00;50397.13;5073570;28;20369;-69
2022/03/30 01:35:47;;;;;;;58.38;21.42;;;;;;;-149.78;100.00;50381.47;5072488;28;20043;-69
2022/03/30 01:38:14;;;;;;;54.13;19.88;;;;;;;-149.78;100.00;50397.13;5072317;28;20037;-69
2022/03/30 01:40:39;;;;;;;60.58;21.05;;;;;;;-149.78;100.00;50420.59;5055742;28;20048;-69
2022/03/30 01:43:05;;;;;;;64.22;22.17;;;;;;;-149.78;100.00;50397.13;5072315;28;20123;-69
2022/03/30 01:45:31;;;;;;;53.42;20.13;;;;;;;-149.78;100.00;50404.94;5072179;28;20032;-69
2022/03/30 01:47:59;;;;;;;54.60;20.00;;;;;;;-149.78;100.00;50383.44;5072240;28;20716;-69
2022/03/30 01:50:29;;;;;;;54.15;19.67;;;;;;;-149.78;100.00;50369.75;5093123;28;20032;-69
2022/03/30 01:52:55;;;;;;;60.97;21.00;;;;;;;-149.78;100.00;50401.03;5092150;28;20447;-69
2022/03/30 01:55:21;;;;;;;53.35;19.10;;;;;;;-149.78;100.00;50389.31;5092272;28;20379;-70
2022/03/30 01:57:48;;;;;;;54.63;19.77;;;;;;;-149.78;100.00;50397.13;5092471;28;20070;-69
2022/03/30 02:00:15;;;;;;;56.22;19.05;;;;;;;-149.78;100.00;50420.59;5075302;28;20113;-69
2022/03/30 02:02:41;;;;;;;56.60;19.90;;;;;;;-149.78;100.00;50371.69;5093299;28;20107;-69
2022/03/30 02:05:09;;;;;;;58.72;20.67;;;;;;;-149.78;100.00;50393.22;5093275;28;20115;-69
2022/03/30 02:07:36;;;;;;;57.53;20.05;;;;;;;-149.78;100.00;50381.47;5086913;28;20024;-69
2022/03/30 02:10:04;;;;;;;54.55;20.60;;;;;;;-149.78;100.00;50365.84;5071538;28;20031;-68
2022/03/30 02:12:30;;;;;;;57.60;21.52;;;;;;;-149.78;100.00;50404.94;5079407;28;20029;-69
2022/03/30 02:14:57;;;;;;;55.75;20.38;;;;;;;-149.78;100.00;50373.66;5072942;28;20044;-69
2022/03/30 02:17:24;;;;;;;57.72;20.27;;;;;;;-149.78;100.00;50404.94;5074181;28;20039;-69
2022/03/30 02:19:49;;;;;;;56.70;20.33;;;;;;;-149.78;100.00;50397.13;5082076;28;20028;-70
2022/03/30 02:22:15;;;;;;;55.10;20.92;;;;;;;-149.78;100.00;50377.56;5082217;28;20498;-69
2022/03/30 02:24:41;;;;;;;54.85;20.17;;;;;;;-149.78;100.00;50373.66;5072861;28;20395;-69
2022/03/30 02:27:08;;;;;;;56.08;20.38;;;;;;;-149.78;100.00;50414.72;5072771;28;20460;-69
2022/03/30 02:29:35;;;;;;;63.92;21.02;;;;;;;-149.78;100.00;50420.59;5070911;28;20053;-69
2022/03/30 02:32:01;;;;;;;54.97;20.30;;;;;;;-149.78;100.00;50406.91;5071031;28;20040;-69
2022/03/30 02:34:27;;;;;;;55.38;20.05;;;;;;;-149.78;100.00;50403.00;5076470;28;20055;-69
2022/03/30 02:36:53;;;;;;;54.35;19.40;;;;;;;-149.78;100.00;50397.13;5080488;28;20093;-69
2022/03/30 02:39:19;;;;;;;58.33;19.88;;;;;;;-149.78;100.00;50404.94;5054507;28;20476;-69
2022/03/30 02:41:46;;;;;;;61.85;21.23;;;;;;;-149.78;100.00;50424.50;5072464;28;20531;-70
2022/03/30 02:44:13;;;;;;;58.10;20.63;;;;;;;-149.78;100.00;50424.50;5072382;28;20226;-69
2022/03/30 02:46:40;;;;;;;61.60;21.92;;;;;;;-149.78;100.00;50393.22;5071183;28;20033;-69
2022/03/30 02:49:05;;;;;;;52.22;18.88;;;;;;;-149.78;100.00;50416.69;5072320;28;20041;-69
2022/03/30 02:51:31;;;;;;;55.97;19.67;;;;;;;-149.78;100.00;50401.03;5076464;28;20024;-69
2022/03/30 02:53:57;;;;;;;61.97;20.05;;;;;;;-149.78;100.00;50416.69;5091244;28;20173;-69
2022/03/30 02:56:23;;;;;;;60.03;20.40;;;;;;;-149.78;100.00;50420.59;5092467;28;20032;-69
2022/03/30 02:58:49;;;;;;;55.53;19.83;;;;;;;-149.78;100.00;50369.75;5091225;28;20061;-69
2022/03/30 03:01:15;;;;;;;59.00;21.38;;;;;;;-149.78;100.00;50418.63;5092416;28;20024;-69
2022/03/30 03:03:43;;;;;;;54.88;20.45;;;;;;;-149.78;100.00;50404.94;5083949;28;20043;-69
2022/03/30 03:06:09;;;;;;;58.60;19.77;;;;;;;-149.78;100.00;50408.84;5072072;28;20035;-69
2022/03/30 03:08:34;;;;;;;52.95;19.73;;;;;;;-149.78;100.00;50416.69;5054254;28;20408;-69
2022/03/30 03:11:00;;;;;;;52.63;19.65;;;;;;;-149.78;100.00;50426.47;5072000;28;20036;-69
2022/03/30 03:13:26;;;;;;;62.30;20.90;;;;;;;-149.78;100.00;50422.56;5071917;28;20037;-70
2022/03/30 03:15:56;;;;;;;61.65;20.80;;;;;;;-149.78;100.00;50365.84;5072073;28;20097;-70
2022/03/30 03:18:22;;;;;;;61.72;20.25;;;;;;;-149.78;100.00;50381.47;5070648;28;20056;-70
2022/03/30 03:20:49;;;;;;;51.28;19.00;;;;;;;-149.78;100.00;50404.94;5070722;28;20040;-70
2022/03/30 03:23:16;;;;;;;50.47;18.75;;;;;;;-149.78;100.00;50385.38;5071881;28;20086;-71
2022/03/30 03:25:44;;;;;;;53.13;19.83;;;;;;;-149.78;100.00;50385.38;5054106;28;20039;-70
2022/03/30 03:28:11;;;;;;;53.28;20.48;;;;;;;-149.78;100.00;50440.16;5070712;28;20040;-70
2022/03/30 03:30:38;;;;;;;60.50;20.02;;;;;;;-149.78;100.00;50422.56;5071716;28;20055;-70
2022/03/30 03:33:05;;;;;;;60.95;20.98;;;;;;;-149.78;100.00;50391.25;5070428;28;20087;-70
2022/03/30 03:35:31;;;;;;;53.55;19.70;;;;;;;-149.78;100.00;50432.31;5070522;28;20451;-70
2022/03/30 03:37:57;;;;;;;55.72;19.95;;;;;;;-149.78;100.00;50383.44;5071560;28;20043;-70
2022/03/30 03:40:23;;;;;;;68.20;21.50;;;;;;;-149.78;100.00;50401.03;5070329;28;20399;-70
2022/03/30 03:42:49;;;;;;;52.17;18.98;;;;;;;-149.78;100.00;50418.63;5074920;28;20025;-70
2022/03/30 03:45:15;;;;;;;56.70;19.95;;;;;;;-149.78;100.00;50401.03;5069659;28;20555;-70
2022/03/30 03:47:41;;;;;;;59.85;19.48;;;;;;;-149.78;100.00;50461.66;5084943;28;20036;-70
2022/03/30 03:50:09;;;;;;;58.63;20.85;;;;;;;-149.78;100.00;50420.59;5090185;28;20035;-70
2022/03/30 03:52:34;;;;;;;64.75;20.13;;;;;;;-149.78;100.00;50401.03;5090054;28;20032;-70
2022/03/30 03:55:01;;;;;;;60.28;20.02;;;;;;;-149.78;100.00;50401.03;5091241;28;20043;-70
2022/03/30 03:57:26;;;;;;;66.20;20.63;;;;;;;-149.78;100.00;50399.09;5089965;28;20411;-70
2022/03/30 03:59:52;;;;;;;58.38;20.70;;;;;;;-149.78;100.00;50428.41;5090130;28;20032;-70
2022/03/30 04:02:18;;;;;;;64.90;21.00;;;;;;;-149.78;100.00;50393.22;5090225;28;20101;-70
2022/03/30 04:04:44;;;;;;;63.17;21.35;;;;;;;-149.78;100.00;50393.22;5091568;28;20597;-70
2022/03/30 04:07:10;;;;;;;56.20;20.20;;;;;;;-149.78;100.00;50432.31;5090305;28;20525;-70
2022/03/30 04:09:36;;;;;;;60.97;21.58;;;;;;;-149.78;100.00;50412.78;5090523;28;20040;-70
2022/03/30 04:12:03;;;;;;;55.20;20.52;;;;;;;-149.78;100.00;50373.66;5093698;28;20049;-70
2022/03/30 04:14:28;;;;;;;59.85;20.75;;;;;;;-149.78;100.00;50428.41;5095315;28;20146;-70
2022/03/30 04:16:54;;;;;;;69.93;22.00;;;;;;;-149.78;100.00;50397.13;5094067;28;20115;-70
2022/03/30 04:19:19;;;;;;;58.22;21.38;;;;;;;-149.78;100.00;50406.91;5094311;28;20043;-71
2022/03/30 04:21:45;;;;;;;59.22;21.45;;;;;;;-149.78;100.00;50416.69;5095420;28;20040;-70
2022/03/30 04:24:12;;;;;;;60.72;21.50;;;;;;;-149.78;100.00;50408.84;5094170;28;20063;-70
2022/03/30 04:26:38;;;;;;;65.80;23.13;;;;;;;-149.78;100.00;50412.78;5093921;28;20046;-70
2022/03/30 04:29:05;;;;;;;64.95;21.50;;;;;;;-149.78;100.00;50447.97;5094986;28;20044;-70
2022/03/30 04:31:32;;;;;;;68.97;21.67;;;;;;;-149.78;100.00;50440.16;5095063;28;20028;-70
2022/03/30 04:33:59;;;;;;;71.40;24.08;;;;;;;-149.78;100.00;50397.13;5093769;28;20088;-70
2022/03/30 04:36:25;;;;;;;63.42;22.45;;;;;;;-149.78;100.00;50447.97;5095170;28;20799;-70
2022/03/30 04:38:51;;;;;;;68.47;23.80;;;;;;;-149.78;100.00;50416.69;5094940;28;20114;-70
2022/03/30 04:41:16;;;;;;;65.78;23.40;;;;;;;-149.78;100.00;50422.56;5094929;28;20050;-69
2022/03/30 04:43:42;;;;;;;69.28;23.50;;;;;;;-149.78;100.00;50420.59;5093579;28;20589;-70
2022/03/30 04:46:12;;;;;;;76.45;23.75;;;;;;;-149.78;100.00;50393.22;5076435;28;20089;-70
2022/03/30 04:48:39;;;;;;;83.45;25.10;;;;;;;-149.78;100.00;50399.09;5076606;28;20039;-70
2022/03/30 04:51:05;;;;;;;69.78;23.67;;;;;;;-149.78;100.00;50397.13;5086049;28;20115;-70
2022/03/30 04:53:31;;;;;;;78.50;25.10;;;;;;;-149.78;100.00;50381.47;5074265;28;20032;-70
2022/03/30 04:55:57;;;;;;;76.35;24.88;;;;;;;-149.78;100.00;50408.84;5056373;28;20036;-70
2022/03/30 04:58:22;;;;;;;75.63;26.65;;;;;;;-149.78;100.00;50397.13;5072992;28;20036;-69
2022/03/30 05:00:49;;;;;;;85.63;28.15;;;;;;;-149.78;100.00;50447.97;5073131;28;20415;-70
2022/03/30 05:03:15;;;;;;;79.85;28.27;;;;;;;-149.78;100.00;50404.94;5074238;28;20062;-70
2022/03/30 05:05:42;;;;;;;89.53;28.52;;;;;;;-149.78;100.00;50381.47;5074212;28;20039;-70
2022/03/30 05:08:08;;;;;;;81.43;27.70;;;;;;;-149.78;100.00;50401.03;5074096;28;20036;-70
2022/03/30 05:10:34;;;;;;;86.18;28.23;;;;;;;-149.78;100.00;50404.94;5074169;28;20159;-70
2022/03/30 05:13:00;;;;;;;84.32;28.35;;;;;;;-149.78;100.00;50381.47;5056099;28;20048;-70
2022/03/30 05:15:29;;;;;;;82.35;27.95;;;;;;;-149.78;100.00;50404.94;5056336;28;20037;-69
2022/03/30 05:17:56;;;;;;;84.72;29.02;;;;;;;-149.78;100.00;50416.69;5072797;28;20043;-70
2022/03/30 05:20:22;;;;;;;81.60;27.77;;;;;;;-149.78;100.00;50404.94;5074026;28;20043;-70
2022/03/30 05:22:48;;;;;;;84.18;28.00;;;;;;;-149.78;100.00;50404.94;5083496;28;20020;-70
2022/03/30 05:25:19;;;;;;;82.20;29.08;;;;;;;-149.78;100.00;50393.22;5093189;28;20137;-70
2022/03/30 05:27:45;;;;;;;83.13;29.40;;;;;;;-149.78;100.00;50397.13;5072562;28;20502;-70
2022/03/30 05:30:12;;;;;;;91.57;29.20;;;;;;;-149.78;100.00;50412.78;5055387;28;20057;-70
2022/03/30 05:32:39;;;;;;;83.28;27.73;;;;;;;-149.78;100.00;50416.69;5072480;28;20029;-70
2022/03/30 05:35:05;;;;;;;91.28;28.42;;;;;;;-149.78;100.00;50436.25;5072251;28;20032;-69
2022/03/30 05:37:32;;;;;;;90.85;29.73;;;;;;;-149.78;100.00;50369.75;5073558;28;20499;-69
2022/03/30 05:39:58;;;;;;;82.95;28.80;;;;;;;-149.78;100.00;50410.81;5073448;28;20033;-70
2022/03/30 05:42:24;;;;;;;94.88;28.23;;;;;;;-149.78;100.00;50430.38;5055566;28;20147;-70
2022/03/30 05:44:51;;;;;;;83.30;27.67;;;;;;;-149.78;100.00;50412.78;5073312;28;20028;-69
2022/03/30 05:47:17;;;;;;;87.05;28.17;;;;;;;-149.78;100.00;50408.84;5073385;28;20056;-69
2022/03/30 05:49:43;;;;;;;87.30;28.15;;;;;;;-149.78;100.00;50397.13;5073417;28;20043;-69
2022/03/30 05:52:10;;;;;;;88.20;26.77;;;;;;;-149.78;100.00;50397.13;5078838;28;20037;-69
2022/03/30 05:54:36;;;;;;;90.30;29.30;;;;;;;-149.78;100.00;50399.09;5077667;28;20074;-70
2022/03/30 05:57:05;;;;;;;95.93;29.95;;;;;;;-149.78;100.00;50381.47;5077350;28;20051;-69
2022/03/30 05:59:37;;;;;;;91.45;28.17;;;;;;;-149.78;100.00;50406.91;5076439;28;20024;-69
2022/03/30 06:02:03;;;;;;;;;;;;;;;-149.78;100.00;50428.41;5082665;28;20024;-69
2022/03/30 06:04:30;;;;;;;96.30;30.38;;;;;;;-149.78;100.00;50422.56;5076785;28;19923;-69
2022/03/30 06:06:56;;;;;;;98.03;31.60;;;;;;;-149.78;100.00;50369.75;5073597;28;20045;-69
2022/03/30 06:09:22;;;;;;;96.22;30.50;;;;;;;-149.78;100.00;50393.22;5074966;28;20036;-69
2022/03/30 06:11:48;;;;;;;106.65;30.95;;;;;;;-149.78;100.00;50428.41;5078577;28;20059;-69
2022/03/30 06:14:14;;;;;;;105.30;30.80;;;;;;;-149.78;100.00;50401.03;5075939;28;20024;-69
2022/03/30 06:16:44;;;;;;;94.35;29.25;;;;;;;-149.78;100.00;50412.78;5076060;28;20032;-70
2022/03/30 06:19:12;;;;;;;99.57;32.53;;;;;;;-149.78;100.00;50385.38;5054824;28;20028;-69
2022/03/30 06:21:42;;;;;;;89.63;30.73;;;;;;;-149.78;100.00;50404.94;5071343;28;20032;-70
2022/03/30 06:24:11;;;;;;;90.15;29.38;;;;;;;-149.78;100.00;50401.03;5072572;28;20096;-70
2022/03/30 06:26:40;;;;;;;98.13;31.63;;;;;;;-149.78;100.00;50420.59;5084622;28;20040;-70
2022/03/30 06:29:06;;;;;;;104.60;31.30;;;;;;;-149.78;100.00;50403.00;5086828;28;20054;-70
2022/03/30 06:31:32;;;;;;;95.90;30.70;;;;;;;-149.78;100.00;50428.41;5078845;28;20051;-70
2022/03/30 06:33:58;;;;;;;90.93;29.17;;;;;;;-149.78;100.00;50428.41;5091181;28;20498;-69
2022/03/30 06:36:23;;;;;;;107.47;33.15;;;;;;;-149.78;100.00;50397.13;5092627;28;20088;-70
2022/03/30 06:38:50;;;;;;;99.55;31.17;;;;;;;-149.78;100.00;50416.69;5072373;28;20598;-71
2022/03/30 06:41:18;;;;;;;99.40;32.58;;;;;;;-149.78;100.00;50440.16;5054554;28;20036;-70
2022/03/30 06:43:47;;;;;;;116.05;34.15;;;;;;;-149.78;100.00;50395.16;5072403;28;20071;-71
2022/03/30 06:46:14;;;;;;;103.95;31.90;;;;;;;-149.78;100.00;50428.41;5084771;28;20039;-72
2022/03/30 06:48:40;;;;;;;95.47;31.23;;;;;;;-149.78;100.00;50401.03;5089233;28;20530;-70
2022/03/30 06:51:06;;;;;;;96.18;30.30;;;;;;;-149.78;100.00;50422.56;5078623;28;20044;-70
2022/03/30 06:53:32;;;;;;;99.35;29.27;;;;;;;-149.78;100.00;50381.47;5084438;28;20032;-70
2022/03/30 06:55:58;;;;;;;93.53;29.13;;;;;;;-149.78;100.00;50436.25;5089936;28;20028;-68
2022/03/30 06:58:24;;;;;;;62.25;20.05;;;;;;;-149.78;100.00;50397.13;5074191;28;20541;-68
2022/03/30 07:00:51;;;;;;;43.40;12.32;;;;;;;-149.78;100.00;50432.31;5080833;28;20054;-69
2022/03/30 07:03:17;;;;;;;30.17;10.43;;;;;;;-149.78;100.00;50401.03;5079088;28;20178;-69
2022/03/30 07:05:43;;;;;;;21.40;7.95;;;;;;;-149.78;100.00;50444.06;5084874;28;20032;-69
2022/03/30 07:10:52;;;;;;;15.30;6.05;;;;;;;-149.78;100.00;50428.41;5082666;28;20032;-68
2022/03/30 07:13:19;;;;;;;14.23;5.65;;;;;;;-149.78;100.00;50471.44;5073378;28;20434;-69
2022/03/30 07:15:45;;;;;;;17.08;5.88;;;;;;;-149.78;100.00;50436.25;5073046;28;20119;-68
2022/03/30 07:18:13;;;;;;;14.70;4.88;;;;;;;-149.78;100.00;50432.31;5078683;28;20374;-68
2022/03/30 07:20:38;;;;;;;9.68;4.43;;;;;;;-149.78;100.00;50408.84;5074791;28;20430;-69
2022/03/30 07:23:05;;;;;;;11.07;5.03;;;;;;;-149.78;100.00;50401.03;5076534;28;20036;-68
2022/03/30 07:25:31;;;;;;;12.77;5.13;;;;;;;-149.78;100.00;50440.16;5054419;28;20415;-67
2022/03/30 07:28:02;;;;;;;11.38;4.95;;;;;;;-149.78;100.00;50444.06;5073941;28;20040;-68
2022/03/30 07:30:28;;;;;;;12.32;5.80;;;;;;;-149.78;100.00;50436.25;5073375;28;20400;-68
2022/03/30 07:32:55;;;;;;;11.57;5.90;;;;;;;-149.78;100.00;50440.16;5071334;28;20040;-68
2022/03/30 07:35:22;;;;;;;10.68;4.85;;;;;;;-149.78;100.00;50473.41;5078627;28;20051;-68
2022/03/30 07:37:49;;;;;;;9.55;4.60;;;;;;;-149.78;100.00;50428.41;5070478;28;20387;-68
2022/03/30 07:40:18;;;;;;;10.38;3.97;;;;;;;-149.78;100.00;50449.94;5070341;28;20033;-68
2022/03/30 07:42:46;;;;;;;6.70;3.60;;;;;;;-149.78;100.00;50440.16;5053323;28;21367;-68
2022/03/30 07:45:12;;;;;;;6.18;3.30;;;;;;;-149.78;100.00;50455.81;5084461;28;20044;-68
2022/03/30 07:47:38;;;;;;;5.85;2.97;;;;;;;-149.78;100.00;50444.06;5094004;28;20087;-68
2022/03/30 07:50:05;;;;;;;6.88;3.47;;;;;;;-149.78;100.00;50420.59;5068926;28;20039;-68
2022/03/30 07:52:31;;;;;;;5.55;3.28;;;;;;;-149.78;100.00;50416.69;5085528;28;20051;-69
2022/03/30 07:54:56;;;;;;;5.07;3.38;;;;;;;-149.78;100.00;50420.59;5094309;28;20032;-68
2022/03/30 07:57:28;;;;;;;7.30;4.05;;;;;;;-149.78;100.00;50483.19;5086691;28;20484;-68
2022/03/30 07:59:56;;;;;;;7.55;3.92;;;;;;;-149.78;100.00;50434.28;5085130;28;20054;-68
2022/03/30 08:02:23;;;;;;;7.72;4.00;;;;;;;-149.78;100.00;50434.28;5060346;28;20176;-68
2022/03/30 08:04:49;;;;;;;7.65;4.13;;;;;;;-149.78;100.00;50455.81;5095296;28;20063;-68
2022/03/30 08:07:15;;;;;;;7.72;3.72;;;;;;;-149.78;100.00;50432.31;5086721;28;20028;-68
2022/03/30 08:09:42;;;;;;;7.32;4.00;;;;;;;-149.78;100.00;50428.41;5087128;28;20163;-68
2022/03/30 08:12:11;;;;;;;5.65;3.25;;;;;;;-149.78;100.00;50459.72;5085503;28;20106;-69
2022/03/30 08:14:38;;;;;;;6.88;2.97;;;;;;;-149.78;100.00;50418.63;5060988;28;20540;-69
2022/03/30 08:17:04;;;;;;;4.80;2.95;;;;;;;-149.78;100.00;50479.28;5055960;28;20119;-70
2022/03/30 08:19:30;;;;;;;5.88;3.05;;;;;;;-149.78;100.00;50455.81;5086741;28;20167;-70
2022/03/30 08:24:46;;;;;;;5.40;3.08;;;;;;;-149.78;100.00;50436.25;5078123;28;20047;-69
2022/03/30 08:27:17;;;;;;;6.50;2.90;;;;;;;-149.78;100.00;50440.16;5078125;28;20057;-68
2022/03/30 08:29:46;;;;;;;9.20;4.00;;;;;;;-149.78;100.00;50428.41;5085843;28;20086;-68
2022/03/30 08:32:16;;;;;;;11.07;4.55;;;;;;;-149.78;100.00;50451.88;5086202;28;20356;-68
2022/03/30 08:34:44;;;;;;;10.15;4.82;;;;;;;-149.78;100.00;50455.81;5060225;28;20094;-67
2022/03/30 08:37:10;;;;;;;8.75;4.40;;;;;;;-149.78;100.00;50467.53;5080021;28;20032;-67
2022/03/30 08:39:37;;;;;;;7.28;4.13;;;;;;;-149.78;100.00;50459.72;5087020;28;20029;-66
2022/03/30 08:42:04;;;;;;;7.70;3.88;;;;;;;-149.78;100.00;50459.72;5084489;28;20043;-68
2022/03/30 08:44:31;;;;;;;7.72;4.03;;;;;;;-149.78;100.00;50455.81;5079737;28;20109;-67
2022/03/30 08:46:57;;;;;;;9.60;5.30;;;;;;;-149.78;100.00;50440.16;5082535;28;20041;-66
2022/03/30 08:49:26;;;;;;;11.23;5.30;;;;;;;-149.78;100.00;50418.63;5088767;28;20111;-66
2022/03/30 08:51:53;;;;;;;11.25;5.38;;;;;;;-149.78;100.00;50492.97;5083531;28;20036;-66
2022/03/30 08:54:19;;;;;;;8.93;5.00;;;;;;;-149.78;100.00;50467.53;5080839;28;20055;-67
2022/03/30 08:56:46;;;;;;;11.45;5.68;;;;;;;-149.78;100.00;50459.72;5088781;28;20036;-67
2022/03/30 08:59:16;;;;;;;8.02;4.28;;;;;;;-149.78;100.00;50485.13;5078154;28;20111;-67
2022/03/30 09:01:43;;;;;;;8.05;3.97;;;;;;;-149.78;100.00;50449.94;5086142;28;20032;-67
2022/03/30 09:04:12;;;;;;;7.00;3.72;;;;;;;-149.78;100.00;50438.19;5084716;28;20032;-67
2022/03/30 09:06:55;;;;;;;10.70;4.68;;;;;;;-149.78;100.00;50481.22;5078295;28;20418;-67
2022/03/30 09:09:30;;;;;;;8.85;4.20;;;;;;;-149.78;100.00;50479.28;5079441;28;20035;-66
2022/03/30 09:11:57;;;;;;;15.15;5.68;;;;;;;-149.78;100.00;50451.88;5088318;28;20088;-67
2022/03/30 09:14:26;;;;;;;10.70;4.97;;;;;;;-149.78;100.00;50469.50;5076078;28;20028;-67
2022/03/30 09:16:57;;;;;;;29.90;7.72;;;;;;;-149.78;100.00;50436.25;5077107;28;20043;-67
2022/03/30 09:19:23;;;;;;;9.60;5.30;;;;;;;-149.78;100.00;50436.25;5088101;28;20518;-67
2022/03/30 09:21:50;;;;;;;11.50;5.45;;;;;;;-149.78;100.00;50440.16;5081681;28;20052;-67
2022/03/30 09:24:19;;;;;;;12.98;5.55;;;;;;;-149.78;100.00;50463.63;5080779;28;20479;-67
2022/03/30 09:26:45;;;;;;;10.30;5.13;;;;;;;-149.78;100.00;50453.84;5089030;28;20042;-67
2022/03/30 09:29:11;;;;;;;12.02;6.90;;;;;;;-149.78;100.00;50428.41;5077300;28;20056;-67
2022/03/30 09:31:41;;;;;;;11.07;5.90;;;;;;;-149.78;100.00;50420.59;5092510;28;20024;-68
2022/03/30 09:34:09;;;;;;;11.88;5.90;;;;;;;-149.78;100.00;50483.19;5080574;28;20451;-68
2022/03/30 09:36:41;;;;;;;11.88;6.03;;;;;;;-149.78;100.00;50491.00;5088962;28;20032;-68
2022/03/30 09:39:26;;;;;;;12.07;5.75;;;;;;;-149.78;100.00;50451.88;5088339;28;20099;-68
2022/03/30 09:41:54;;;;;;;11.07;5.35;;;;;;;-149.78;100.00;50449.94;5082797;28;20460;-68
2022/03/30 09:44:21;;;;;;;10.68;5.55;;;;;;;-149.78;100.00;50479.28;5078178;28;20028;-68
2022/03/30 09:46:54;;;;;;;11.32;6.10;;;;;;;-149.78;100.00;50451.88;5078801;28;20535;-68
2022/03/30 09:49:39;;;;;;;14.93;6.70;;;;;;;-149.78;100.00;50451.88;5080642;28;20020;-68
2022/03/30 09:52:11;;;;;;;12.85;5.95;;;;;;;-149.78;100.00;50440.16;5076335;28;20085;-68
2022/03/30 09:54:44;;;;;;;15.45;6.75;;;;;;;-149.78;100.00;50479.28;5081355;28;20140;-69
2022/03/30 09:57:12;;;;;;;18.65;6.70;;;;;;;-149.78;100.00;50440.16;5078439;28;20029;-68
2022/03/30 10:00:04;;;;;;;15.52;7.78;;;;;;;-149.78;100.00;50422.56;5076659;28;20107;-68
2022/03/30 10:02:39;;;;;;;15.52;7.97;;;;;;;-149.78;100.00;50410.81;5081281;28;20486;-68
2022/03/30 10:05:08;;;;;;;20.92;9.63;;;;;;;-149.78;100.00;50459.72;5057624;28;20402;-68
2022/03/30 10:07:34;;;;;;;21.13;9.38;;;;;;;-149.78;100.00;50475.34;5077093;28;20142;-68
2022/03/30 10:10:02;;;;;;;15.07;8.00;;;;;;;-149.78;100.00;50436.25;5074378;28;20102;-68
2022/03/30 10:12:28;;;;;;;16.20;7.82;;;;;;;-149.78;100.00;50459.72;5091771;28;20032;-68
2022/03/30 10:14:55;;;;;;;16.85;7.38;;;;;;;-149.78;100.00;50422.56;5085497;28;20042;-68
2022/03/30 10:17:22;;;;;;;12.50;6.57;;;;;;;-149.78;100.00;50467.53;5073320;28;20033;-68
2022/03/30 10:19:49;;;;;;;9.95;5.20;;;;;;;-149.78;100.00;50436.25;5080646;28;20021;-69
2022/03/30 10:22:31;;;;;;;11.23;5.20;;;;;;;-149.78;100.00;50457.75;5057309;28;20036;-68
2022/03/30 10:25:34;;;;;;;10.32;4.93;;;;;;;-149.78;100.00;50481.22;5089348;28;20028;-68
2022/03/30 10:28:13;;;;;;;8.75;4.35;;;;;;;-149.78;100.00;50467.53;5091539;28;20106;-68
2022/03/30 10:30:43;;;;;;;8.23;4.53;;;;;;;-149.78;100.00;50440.16;5091196;28;20403;-68
2022/03/30 10:33:11;;;;;;;9.27;5.10;;;;;;;-149.78;100.00;50465.56;5091236;28;20063;-68
2022/03/30 10:35:40;;;;;;;9.32;5.35;;;;;;;-149.78;100.00;50432.31;5091275;28;20438;-68
2022/03/30 10:38:06;;;;;;;10.35;6.20;;;;;;;-149.78;100.00;50440.16;5073037;28;20460;-68
2022/03/30 10:40:32;;;;;;;15.05;6.53;;;;;;;-149.78;100.00;50422.56;5079161;28;20120;-68
2022/03/30 10:43:03;;;;;;;12.02;6.72;;;;;;;-149.78;100.00;50436.25;5079939;28;20037;-68
2022/03/30 10:45:36;;;;;;;12.50;6.90;;;;;;;-149.78;100.00;50451.88;5073701;28;20109;-68
2022/03/30 10:48:09;;;;;;;14.40;7.82;;;;;;;-149.78;100.00;50440.16;5083926;28;20368;-68
2022/03/30 10:50:50;;;;;;;13.93;7.30;;;;;;;-149.78;100.00;50455.81;5078363;28;20028;-68
2022/03/30 10:53:31;;;;;;;14.40;6.75;;;;;;;-149.78;100.00;50455.81;5078369;28;20029;-68
2022/03/30 10:56:09;;;;;;;12.93;6.10;;;;;;;-149.78;100.00;50428.41;5077378;28;20391;-68
2022/03/30 10:58:59;;;;;;;14.57;6.40;;;;;;;-149.78;100.00;50424.50;5080855;28;20032;-68
2022/03/30 11:01:32;;;;;;;13.02;6.22;;;;;;;-149.78;100.00;50428.41;5084881;28;20068;-69
2022/03/30 11:04:10;;;;;;;11.50;5.85;;;;;;;-149.78;100.00;50453.84;5055191;28;20035;-68
2022/03/30 11:06:42;;;;;;;12.25;5.88;;;;;;;-149.78;100.00;50475.34;5070611;28;20103;-68